Terminal Aerodrome Forecast
Issued by NWS

Current Version | Previous Version | Text Only | Print | Product List | Glossary On
Versions: 1 2 3 4 5 6 7 8 9 10 11 12 13 14 15 16
365
FTUS46 KMTR 242320
TAFSNS
TAF
KSNS 242320Z 2500/2524 27008KT P6SM FEW040
     FM250300 VRB04KT P6SM FEW100
     FM251700 12008KT P6SM FEW060
     FM252000 12005KT P6SM BKN060
     FM252200 25007KT P6SM OVC060=

USA.gov is the U.S. government's official web portal to all federal, state and local government web resources and services.